createdAt,value
2023-05-08T00:00:08.790Z,40.61
2023-05-08T00:02:38.829Z,40.72
2023-05-08T00:05:09.047Z,40.77
2023-05-08T00:07:38.015Z,40.83
2023-05-08T00:10:08.217Z,40.90
2023-05-08T00:12:36.759Z,40.78
2023-05-08T00:15:06.902Z,41.03
2023-05-08T00:17:35.219Z,40.81
2023-05-08T00:20:05.644Z,41.09
2023-05-08T00:22:33.917Z,41.26
2023-05-08T00:25:07.673Z,41.26
2023-05-08T00:27:36.014Z,41.47
2023-05-08T00:30:04.648Z,41.40
2023-05-08T00:32:33.177Z,41.43
2023-05-08T00:35:01.474Z,41.53
2023-05-08T00:37:31.148Z,41.64
2023-05-08T00:39:59.500Z,41.48
2023-05-08T00:42:30.336Z,41.70
2023-05-08T00:44:58.623Z,41.75
2023-05-08T00:47:29.095Z,41.79
2023-05-08T00:49:57.764Z,41.84
2023-05-08T00:52:27.318Z,42.08
2023-05-08T00:54:57.367Z,42.13
2023-05-08T00:57:26.454Z,42.03
2023-05-08T00:59:55.888Z,42.06
2023-05-08T01:02:24.521Z,42.24
2023-05-08T01:04:55.082Z,42.12
2023-05-08T01:07:23.953Z,42.37
2023-05-08T01:09:52.267Z,42.52
2023-05-08T01:12:32.002Z,42.37
2023-05-08T01:15:10.628Z,42.52
2023-05-08T01:17:57.483Z,42.32
2023-05-08T01:20:40.880Z,42.45
2023-05-08T01:23:59.403Z,42.30
2023-05-08T01:27:25.344Z,42.54
2023-05-08T01:30:42.868Z,42.70
2023-05-08T01:33:22.954Z,42.68
2023-05-08T01:35:56.352Z,42.77
2023-05-08T01:38:38.293Z,42.90
2023-05-08T01:41:12.108Z,42.92
2023-05-08T01:43:49.915Z,42.96
2023-05-08T01:46:22.205Z,43.18
2023-05-08T01:49:00.631Z,43.30
2023-05-08T01:51:34.843Z,43.32
2023-05-08T01:54:10.100Z,43.41
2023-05-08T01:56:41.595Z,43.50
2023-05-08T01:59:11.924Z,43.58
2023-05-08T02:01:43.625Z,43.66
2023-05-08T02:04:15.862Z,43.61
2023-05-08T02:06:45.046Z,43.81
2023-05-08T02:09:14.247Z,44.02
2023-05-08T02:11:45.497Z,43.92
2023-05-08T02:14:15.937Z,43.96
2023-05-08T02:16:46.286Z,44.19
2023-05-08T02:19:17.658Z,44.22
2023-05-08T02:21:47.434Z,44.18
2023-05-08T02:24:17.491Z,44.47
2023-05-08T02:26:47.500Z,44.58
2023-05-08T02:29:16.891Z,44.51
2023-05-08T02:31:47.912Z,44.24
2023-05-08T02:34:18.825Z,44.24
2023-05-08T02:36:47.473Z,44.45
2023-05-08T02:39:18.752Z,44.56
2023-05-08T02:41:47.903Z,44.40
2023-05-08T02:44:19.781Z,44.41
2023-05-08T02:47:00.205Z,44.44
2023-05-08T02:49:41.244Z,44.46
2023-05-08T02:52:15.407Z,44.51
2023-05-08T02:54:48.636Z,44.37
2023-05-08T02:57:32.080Z,44.18
2023-05-08T03:00:07.499Z,44.35
2023-05-08T03:02:41.721Z,44.15
2023-05-08T03:05:19.236Z,44.04
2023-05-08T03:07:52.498Z,44.18
2023-05-08T03:10:27.547Z,44.25
2023-05-08T03:12:58.342Z,44.22
2023-05-08T03:15:36.827Z,44.12
2023-05-08T03:18:16.688Z,44.02
2023-05-08T03:20:50.122Z,43.98
2023-05-08T03:23:22.329Z,43.93
2023-05-08T03:25:50.702Z,44.14
2023-05-08T03:28:19.807Z,44.22
2023-05-08T03:30:49.418Z,44.08
2023-05-08T03:33:19.186Z,44.10
2023-05-08T03:35:50.972Z,44.29
2023-05-08T03:38:19.819Z,44.24
2023-05-08T03:40:49.393Z,44.23
2023-05-08T03:43:19.111Z,44.30
2023-05-08T03:45:47.938Z,44.34
2023-05-08T03:48:16.496Z,44.28
2023-05-08T03:50:48.699Z,44.29
2023-05-08T03:53:18.509Z,44.17
2023-05-08T03:55:47.099Z,44.23
2023-05-08T03:58:23.009Z,44.18
2023-05-08T04:01:05.437Z,44.02
2023-05-08T04:03:50.061Z,43.89
2023-05-08T04:06:35.675Z,44.10
2023-05-08T04:09:19.470Z,44.30
2023-05-08T04:12:02.515Z,44.24
2023-05-08T04:14:41.180Z,44.28
2023-05-08T04:17:12.004Z,44.08
2023-05-08T04:19:46.330Z,44.11
2023-05-08T04:22:16.377Z,44.16
2023-05-08T04:24:49.365Z,44.24
2023-05-08T04:27:18.276Z,44.28
2023-05-08T04:29:46.776Z,44.22
2023-05-08T04:32:15.715Z,44.20
2023-05-08T04:34:44.269Z,44.21
2023-05-08T04:37:28.280Z,44.28
2023-05-08T04:40:01.555Z,44.48
2023-05-08T04:42:30.209Z,44.52
2023-05-08T04:45:01.615Z,44.67
2023-05-08T04:47:30.001Z,44.76
2023-05-08T04:49:59.547Z,44.89
2023-05-08T04:52:32.608Z,44.82
2023-05-08T04:55:05.839Z,44.69
2023-05-08T04:57:34.788Z,44.67
2023-05-08T05:00:03.301Z,44.81
2023-05-08T05:02:31.656Z,44.84
2023-05-08T05:05:01.369Z,44.76
2023-05-08T05:07:32.764Z,44.77
2023-05-08T05:10:03.060Z,45.10
2023-05-08T05:12:31.466Z,45.03
2023-05-08T05:14:59.840Z,45.10
2023-05-08T05:17:28.655Z,45.09
2023-05-08T05:19:57.419Z,45.03
2023-05-08T05:22:25.900Z,45.24
2023-05-08T05:24:54.238Z,45.43
2023-05-08T05:27:23.934Z,45.60
2023-05-08T05:29:55.271Z,45.55
2023-05-08T05:32:23.641Z,45.80
2023-05-08T05:34:53.898Z,46.14
2023-05-08T05:37:22.287Z,45.98
2023-05-08T05:39:50.659Z,46.03
2023-05-08T05:42:18.993Z,46.08
2023-05-08T05:44:48.704Z,46.00
2023-05-08T05:47:17.109Z,45.94
2023-05-08T05:49:46.938Z,45.83
2023-05-08T05:52:15.469Z,45.68
2023-05-08T05:54:43.931Z,45.44
2023-05-08T05:57:13.355Z,45.28
2023-05-08T05:59:41.827Z,45.20
2023-05-08T06:02:14.577Z,45.12
2023-05-08T06:04:43.011Z,45.22
2023-05-08T06:07:11.368Z,45.12
2023-05-08T06:09:39.675Z,45.09
2023-05-08T06:12:08.340Z,44.99
2023-05-08T06:14:36.662Z,45.17
2023-05-08T06:17:05.154Z,45.16
2023-05-08T06:19:35.057Z,45.12
2023-05-08T06:22:03.520Z,45.12
2023-05-08T06:24:31.904Z,45.29
2023-05-08T06:27:00.258Z,45.15
2023-05-08T06:29:28.622Z,45.14
2023-05-08T06:31:57.665Z,44.63
2023-05-08T06:34:26.112Z,44.06
2023-05-08T06:36:56.398Z,44.03
2023-05-08T06:39:24.926Z,44.03
2023-05-08T06:41:53.267Z,44.13
2023-05-08T06:44:21.597Z,43.93
2023-05-08T06:46:50.037Z,43.59
2023-05-08T06:49:18.373Z,43.71
2023-05-08T06:51:46.722Z,44.04
2023-05-08T06:54:16.618Z,44.19
2023-05-08T06:56:45.036Z,43.94
2023-05-08T06:59:13.443Z,44.11
2023-05-08T07:01:41.937Z,44.31
2023-05-08T07:04:10.338Z,44.46
2023-05-08T07:06:38.757Z,44.23
2023-05-08T07:09:07.052Z,43.98
2023-05-08T07:11:36.811Z,43.91
2023-05-08T07:14:05.150Z,43.19
2023-05-08T07:16:33.674Z,43.29
2023-05-08T07:19:02.116Z,43.24
2023-05-08T07:21:30.759Z,43.49
2023-05-08T07:23:59.067Z,43.81
2023-05-08T07:26:27.385Z,43.15
2023-05-08T07:28:57.188Z,43.28
2023-05-08T07:31:26.453Z,43.09
2023-05-08T07:33:54.967Z,43.19
2023-05-08T07:36:23.899Z,42.94
2023-05-08T07:38:52.214Z,43.04
2023-05-08T07:41:20.620Z,42.92
2023-05-08T07:43:51.779Z,43.15
2023-05-08T07:46:21.821Z,43.33
2023-05-08T07:48:50.191Z,43.32
2023-05-08T07:51:18.640Z,43.28
2023-05-08T07:53:48.781Z,43.78
2023-05-08T07:56:17.212Z,43.81
2023-05-08T07:58:46.083Z,43.45
2023-05-08T08:01:14.451Z,43.13
2023-05-08T08:03:44.241Z,43.28
2023-05-08T08:06:12.874Z,42.87
2023-05-08T08:08:41.403Z,42.80
2023-05-08T08:11:09.916Z,43.23
2023-05-08T08:13:38.169Z,42.47
2023-05-08T08:16:07.665Z,41.80
2023-05-08T08:18:37.082Z,42.33
2023-05-08T08:21:09.536Z,42.11
2023-05-08T08:23:38.666Z,41.78
2023-05-08T08:26:07.070Z,41.83
2023-05-08T08:28:35.354Z,41.60
2023-05-08T08:31:03.712Z,41.06
2023-05-08T08:33:32.147Z,41.12
2023-05-08T08:36:00.479Z,40.44
2023-05-08T08:38:30.320Z,40.29
2023-05-08T08:40:58.688Z,40.24
2023-05-08T08:43:27.138Z,40.57
2023-05-08T08:45:55.801Z,40.71
2023-05-08T08:48:29.621Z,40.86
2023-05-08T08:51:03.990Z,40.60
2023-05-08T08:53:38.595Z,40.13
2023-05-08T08:56:12.682Z,39.49
2023-05-08T08:58:51.148Z,39.36
2023-05-08T09:01:20.904Z,39.25
2023-05-08T09:03:50.077Z,39.25
2023-05-08T09:06:18.686Z,38.89
2023-05-08T09:08:49.221Z,38.47
2023-05-08T09:11:17.517Z,38.32
2023-05-08T09:13:45.862Z,38.49
2023-05-08T09:16:14.220Z,38.70
2023-05-08T09:18:42.544Z,38.25
2023-05-08T09:21:11.233Z,38.23
2023-05-08T09:23:54.636Z,38.09
2023-05-08T09:26:29.705Z,38.40
2023-05-08T09:29:11.813Z,37.28
2023-05-08T09:31:42.213Z,36.97
2023-05-08T09:34:11.837Z,36.83
2023-05-08T09:36:42.109Z,36.68
2023-05-08T09:39:13.972Z,36.84
2023-05-08T09:41:59.712Z,36.81
2023-05-08T09:44:28.175Z,36.60
2023-05-08T09:47:12.287Z,36.96
2023-05-08T09:49:40.915Z,35.45
2023-05-08T09:52:09.546Z,35.08
2023-05-08T09:54:39.495Z,35.46
2023-05-08T09:57:14.183Z,35.04
2023-05-08T09:59:42.503Z,34.85
2023-05-08T10:02:16.283Z,35.68
2023-05-08T10:04:44.852Z,36.22
2023-05-08T10:07:13.235Z,35.40
2023-05-08T10:10:00.441Z,34.55
2023-05-08T10:12:29.413Z,35.18
2023-05-08T10:14:58.172Z,34.50
2023-05-08T10:17:39.976Z,34.75
2023-05-08T10:20:10.135Z,34.68
2023-05-08T10:22:39.941Z,34.61
2023-05-08T10:25:18.533Z,34.67
2023-05-08T10:27:54.973Z,34.53
2023-05-08T10:30:27.957Z,33.80
2023-05-08T10:32:59.744Z,33.74
2023-05-08T10:35:31.863Z,34.01
2023-05-08T10:38:00.688Z,34.54
2023-05-08T10:40:30.355Z,33.90
2023-05-08T10:42:59.962Z,33.29
2023-05-08T10:45:29.853Z,33.85
2023-05-08T10:48:10.272Z,34.01
2023-05-08T10:50:53.773Z,33.89
2023-05-08T10:53:30.739Z,34.61
2023-05-08T10:56:01.200Z,34.21
2023-05-08T10:58:34.122Z,34.39
2023-05-08T11:01:16.913Z,33.72
2023-05-08T11:03:51.707Z,34.03
2023-05-08T11:06:44.630Z,34.09
2023-05-08T11:09:23.107Z,33.67
2023-05-08T11:12:08.899Z,33.32
2023-05-08T11:14:41.806Z,32.51
2023-05-08T11:17:11.499Z,32.48
2023-05-08T11:19:40.110Z,32.48
2023-05-08T11:22:27.136Z,33.52
2023-05-08T11:25:02.370Z,33.42
2023-05-08T11:28:14.632Z,32.69
2023-05-08T11:30:46.548Z,33.04
2023-05-08T11:33:18.853Z,32.63
2023-05-08T11:35:56.432Z,32.26
2023-05-08T11:38:30.982Z,32.64
2023-05-08T11:41:02.669Z,31.93
2023-05-08T11:44:10.448Z,31.90
2023-05-08T11:46:50.328Z,31.57
2023-05-08T11:49:23.842Z,31.64
2023-05-08T11:51:57.979Z,31.53
2023-05-08T11:54:27.588Z,31.24
2023-05-08T11:56:56.240Z,31.35
2023-05-08T11:59:27.531Z,31.16
2023-05-08T12:02:07.784Z,31.56
2023-05-08T12:04:46.038Z,31.26
2023-05-08T12:07:15.870Z,31.03
2023-05-08T12:09:44.201Z,30.70
2023-05-08T12:12:12.535Z,30.55
2023-05-08T12:14:43.447Z,29.93
2023-05-08T12:17:18.133Z,30.22
2023-05-08T12:19:46.575Z,30.04
2023-05-08T12:22:14.851Z,30.16
2023-05-08T12:24:43.210Z,30.41
2023-05-08T12:27:14.494Z,30.55
2023-05-08T12:29:46.657Z,30.48
2023-05-08T12:32:16.487Z,30.35
2023-05-08T12:34:44.909Z,30.27
2023-05-08T12:37:13.246Z,30.51
2023-05-08T12:39:46.089Z,30.12
2023-05-08T12:42:14.392Z,30.02
2023-05-08T12:44:51.923Z,30.35
2023-05-08T12:47:21.673Z,29.85
2023-05-08T12:49:50.630Z,30.19
2023-05-08T12:52:19.383Z,30.02
2023-05-08T12:54:49.812Z,30.46
2023-05-08T12:57:22.933Z,31.56
2023-05-08T12:59:51.357Z,30.95
2023-05-08T13:02:24.021Z,30.63
2023-05-08T13:04:56.787Z,30.61
2023-05-08T13:07:32.840Z,30.67
2023-05-08T13:10:04.451Z,30.32
2023-05-08T13:12:32.902Z,30.32
2023-05-08T13:15:01.614Z,29.80
2023-05-08T13:17:31.326Z,29.59
2023-05-08T13:19:59.685Z,29.00
2023-05-08T13:22:28.032Z,29.65
2023-05-08T13:24:56.345Z,28.48
2023-05-08T13:27:24.892Z,28.61
2023-05-08T13:29:53.218Z,28.29
2023-05-08T13:32:21.677Z,29.06
2023-05-08T13:34:53.741Z,28.57
2023-05-08T13:37:24.690Z,28.16
2023-05-08T13:39:52.999Z,28.83
2023-05-08T13:42:21.394Z,28.31
2023-05-08T13:44:49.729Z,28.14
2023-05-08T13:47:18.703Z,27.57
2023-05-08T13:49:47.306Z,27.50
2023-05-08T13:52:16.960Z,27.28
2023-05-08T13:54:48.188Z,26.87
2023-05-08T13:57:16.507Z,27.28
2023-05-08T13:59:44.894Z,27.16
2023-05-08T14:02:13.684Z,26.34
2023-05-08T14:04:42.900Z,25.62
2023-05-08T14:07:11.262Z,25.87
2023-05-08T14:09:40.957Z,25.60
2023-05-08T14:12:15.429Z,25.98
2023-05-08T14:14:43.844Z,26.07
2023-05-08T14:17:12.149Z,26.47
2023-05-08T14:19:40.524Z,26.66
2023-05-08T14:22:08.816Z,26.41
2023-05-08T14:24:37.127Z,26.98
2023-05-08T14:27:06.834Z,26.34
2023-05-08T14:29:35.427Z,25.98
2023-05-08T14:32:04.106Z,25.53
2023-05-08T14:34:32.497Z,25.70
2023-05-08T14:37:00.806Z,25.71
2023-05-08T14:39:29.066Z,25.92
2023-05-08T14:42:18.246Z,25.58
2023-05-08T14:44:52.871Z,25.90
2023-05-08T14:47:21.447Z,25.87
2023-05-08T14:49:49.753Z,26.35
2023-05-08T14:52:18.073Z,26.32
2023-05-08T14:54:47.986Z,25.81
2023-05-08T14:57:16.456Z,25.94
2023-05-08T14:59:54.190Z,26.06
2023-05-08T15:02:23.860Z,26.21
2023-05-08T15:04:52.279Z,25.77
2023-05-08T15:07:20.548Z,25.58
2023-05-08T15:09:53.156Z,25.96
2023-05-08T15:12:24.193Z,25.96
2023-05-08T15:14:53.896Z,25.77
2023-05-08T15:17:22.303Z,26.06
2023-05-08T15:19:50.624Z,26.66
2023-05-08T15:22:19.044Z,26.54
2023-05-08T15:24:47.300Z,26.68
2023-05-08T15:27:15.594Z,26.90
2023-05-08T15:29:45.371Z,27.15
2023-05-08T15:32:15.071Z,27.52
2023-05-08T15:34:43.401Z,27.67
2023-05-08T15:37:11.732Z,27.86
2023-05-08T15:39:40.052Z,28.08
2023-05-08T15:42:08.577Z,27.97
2023-05-08T15:47:10.811Z,28.34
2023-05-08T15:49:41.152Z,28.48
2023-05-08T15:52:09.513Z,28.92
2023-05-08T15:54:37.836Z,28.93
2023-05-08T15:57:06.228Z,28.72
2023-05-08T15:59:34.625Z,28.81
2023-05-08T16:02:03.003Z,28.78
2023-05-08T16:04:34.054Z,29.19
2023-05-08T16:07:04.415Z,29.10
2023-05-08T16:09:32.861Z,29.31
2023-05-08T16:12:01.259Z,29.60
2023-05-08T16:14:29.612Z,29.79
2023-05-08T16:16:57.997Z,29.75
2023-05-08T16:19:26.459Z,29.84
2023-05-08T16:21:54.877Z,29.79
2023-05-08T16:24:24.609Z,30.00
2023-05-08T16:26:53.563Z,30.26
2023-05-08T16:29:21.937Z,30.25
2023-05-08T16:31:50.558Z,30.61
2023-05-08T16:34:23.611Z,30.40
2023-05-08T16:36:51.970Z,30.59
2023-05-08T16:39:20.355Z,30.67
2023-05-08T16:41:50.248Z,31.06
2023-05-08T16:44:31.212Z,30.85
2023-05-08T16:46:59.743Z,31.08
2023-05-08T16:49:33.680Z,31.18
2023-05-08T16:52:02.107Z,31.59
2023-05-08T16:54:30.812Z,32.19
2023-05-08T16:57:00.606Z,32.59
2023-05-08T16:59:32.267Z,33.05
2023-05-08T17:02:00.663Z,33.15
2023-05-08T17:04:30.893Z,33.14
2023-05-08T17:07:00.020Z,33.69
2023-05-08T17:09:28.963Z,33.52
2023-05-08T17:11:58.254Z,33.78
2023-05-08T17:14:30.964Z,33.89
2023-05-08T17:16:59.399Z,34.15
2023-05-08T17:19:27.833Z,34.20
2023-05-08T17:21:58.229Z,34.32
2023-05-08T17:24:30.167Z,34.14
2023-05-08T17:26:58.594Z,34.15
2023-05-08T17:29:28.402Z,34.32
2023-05-08T17:31:56.970Z,34.64
2023-05-08T17:34:25.509Z,34.73
2023-05-08T17:36:55.103Z,34.57
2023-05-08T17:39:23.922Z,34.55
2023-05-08T17:41:53.269Z,34.81
2023-05-08T17:44:21.657Z,34.72
2023-05-08T17:46:51.444Z,34.69
2023-05-08T17:49:22.778Z,35.06
2023-05-08T17:51:51.154Z,35.05
2023-05-08T17:54:19.548Z,35.28
2023-05-08T17:56:50.949Z,35.18
2023-05-08T17:59:19.754Z,35.54
2023-05-08T18:01:48.290Z,35.78
2023-05-08T18:04:21.295Z,35.88
2023-05-08T18:06:51.658Z,36.01
2023-05-08T18:09:20.850Z,36.19
2023-05-08T18:11:49.370Z,36.28
2023-05-08T18:14:23.347Z,36.38
2023-05-08T18:16:51.790Z,36.24
2023-05-08T18:19:27.587Z,36.04
2023-05-08T18:21:55.987Z,36.28
2023-05-08T18:24:24.509Z,35.75
2023-05-08T18:26:52.958Z,36.18
2023-05-08T18:29:21.310Z,36.22
2023-05-08T18:31:49.684Z,36.19
2023-05-08T18:34:18.003Z,36.52
2023-05-08T18:36:47.681Z,36.33
2023-05-08T18:39:16.217Z,36.71
2023-05-08T18:41:44.576Z,36.52
2023-05-08T18:44:12.926Z,36.81
2023-05-08T18:46:41.309Z,36.83
2023-05-08T18:49:09.672Z,36.61
2023-05-08T18:51:38.019Z,36.15
2023-05-08T18:54:07.806Z,36.16
2023-05-08T18:56:36.179Z,35.75
2023-05-08T18:59:04.670Z,36.08
2023-05-08T19:01:33.119Z,36.37
2023-05-08T19:04:02.869Z,36.58
2023-05-08T19:06:31.515Z,36.82
2023-05-08T19:08:59.874Z,36.93
2023-05-08T19:11:29.646Z,37.38
2023-05-08T19:13:58.014Z,37.11
2023-05-08T19:16:26.559Z,37.18
2023-05-08T19:18:55.037Z,37.15
2023-05-08T19:21:23.470Z,37.24
2023-05-08T19:23:51.864Z,37.06
2023-05-08T19:26:20.203Z,37.28
2023-05-08T19:28:49.956Z,37.52
2023-05-08T19:31:18.382Z,37.50
2023-05-08T19:33:47.343Z,37.49
2023-05-08T19:36:15.751Z,37.46
2023-05-08T19:38:44.074Z,37.36
2023-05-08T19:41:13.165Z,37.87
2023-05-08T19:43:41.501Z,37.83
2023-05-08T19:46:11.271Z,38.15
2023-05-08T19:48:39.841Z,37.95
2023-05-08T19:51:08.903Z,38.12
2023-05-08T19:53:37.484Z,38.35
2023-05-08T19:56:06.127Z,38.85
2023-05-08T19:58:34.476Z,38.78
2023-05-08T20:01:02.925Z,39.02
2023-05-08T20:03:32.731Z,38.99
2023-05-08T20:06:01.167Z,39.00
2023-05-08T20:08:29.608Z,38.75
2023-05-08T20:11:02.284Z,39.01
2023-05-08T20:13:30.642Z,38.84
2023-05-08T20:15:59.492Z,39.24
2023-05-08T20:18:27.836Z,39.03
2023-05-08T20:20:57.856Z,39.40
2023-05-08T20:23:26.234Z,39.63
2023-05-08T20:25:54.799Z,39.48
2023-05-08T20:28:26.014Z,39.74
2023-05-08T20:30:54.553Z,39.53
2023-05-08T20:33:22.866Z,39.78
2023-05-08T20:35:51.269Z,39.89
2023-05-08T20:38:21.259Z,39.86
2023-05-08T20:40:49.686Z,39.79
2023-05-08T20:43:19.382Z,40.12
2023-05-08T20:45:49.167Z,40.22
2023-05-08T20:48:17.590Z,39.73
2023-05-08T20:50:45.849Z,40.08
2023-05-08T20:53:14.143Z,40.03
2023-05-08T20:55:43.834Z,40.04
2023-05-08T20:58:12.362Z,40.38
2023-05-08T21:00:40.703Z,40.85
2023-05-08T21:03:09.009Z,40.47
2023-05-08T21:05:37.321Z,40.34
2023-05-08T21:08:06.310Z,40.48
2023-05-08T21:10:34.685Z,40.17
2023-05-08T21:13:05.377Z,40.45
2023-05-08T21:15:35.065Z,40.19
2023-05-08T21:18:03.434Z,40.05
2023-05-08T21:20:34.272Z,40.03
2023-05-08T21:23:02.589Z,40.41
2023-05-08T21:25:31.090Z,40.35
2023-05-08T21:27:59.377Z,40.60
2023-05-08T21:30:29.094Z,40.48
2023-05-08T21:32:57.592Z,40.33
2023-05-08T21:35:25.904Z,40.23
2023-05-08T21:37:54.850Z,40.27
2023-05-08T21:40:23.388Z,40.48
2023-05-08T21:42:51.758Z,40.54
2023-05-08T21:45:20.047Z,40.59
2023-05-08T21:47:49.884Z,40.67
2023-05-08T21:50:18.492Z,40.85
2023-05-08T21:52:46.819Z,40.92
2023-05-08T21:55:15.402Z,41.21
2023-05-08T21:57:43.873Z,41.29
2023-05-08T22:00:13.737Z,41.50
2023-05-08T22:02:42.125Z,41.30
2023-05-08T22:05:12.152Z,41.22
2023-05-08T22:07:40.617Z,41.25
2023-05-08T22:10:11.634Z,41.39
2023-05-08T22:12:40.015Z,41.83
2023-05-08T22:15:18.307Z,41.80
2023-05-08T22:17:55.864Z,41.67
2023-05-08T22:20:26.140Z,41.48
2023-05-08T22:22:54.588Z,41.55
2023-05-08T22:25:26.745Z,41.60
2023-05-08T22:27:55.189Z,41.65
2023-05-08T22:30:24.531Z,41.62
2023-05-08T22:32:58.168Z,41.47
2023-05-08T22:35:28.931Z,41.60
2023-05-08T22:37:58.359Z,41.27
2023-05-08T22:40:27.417Z,41.15
2023-05-08T22:42:58.759Z,41.12
2023-05-08T22:45:28.041Z,41.21
2023-05-08T22:47:56.796Z,41.09
2023-05-08T22:50:25.218Z,41.09
2023-05-08T22:52:54.915Z,41.05
2023-05-08T22:55:23.449Z,41.14
2023-05-08T22:57:51.840Z,41.22
2023-05-08T23:00:23.325Z,41.36
2023-05-08T23:02:51.701Z,41.27
2023-05-08T23:05:20.160Z,41.31
2023-05-08T23:07:48.502Z,41.38
2023-05-08T23:10:18.471Z,41.37
2023-05-08T23:12:46.956Z,41.16
2023-05-08T23:15:15.770Z,41.31
2023-05-08T23:17:44.378Z,41.60
2023-05-08T23:20:13.447Z,41.53
2023-05-08T23:22:44.811Z,41.38
2023-05-08T23:25:13.376Z,41.67
2023-05-08T23:27:43.332Z,41.82
2023-05-08T23:30:13.315Z,41.96
2023-05-08T23:32:44.762Z,41.53
2023-05-08T23:35:13.607Z,41.68
2023-05-08T23:37:42.013Z,41.75
2023-05-08T23:40:11.750Z,41.60
2023-05-08T23:42:40.711Z,41.95
2023-05-08T23:45:12.442Z,41.95
2023-05-08T23:47:41.527Z,41.72
2023-05-08T23:50:13.567Z,41.98
2023-05-08T23:52:43.012Z,42.11
2023-05-08T23:55:12.071Z,41.88
2023-05-08T23:57:40.597Z,41.68
